Etusivu
METAR-TAF:

METAR-TAF

Lentoasemat :

Lafayette Regional Airport

Lafayette, Louisiana, Yhdysvallat

Leveyspiiri: 30-12-08N, Pituuspiiri: 091-59-35W, korkeus merenpinnasta: 12 m

Tämänhetkinen sää

Tämä raportti tehtiin 1 tunti ja 7 minuuttia sitten, kello 17.53 UTC
Tuuli 8 kn idästä/koillisesta puuskistuen 14 kn:hen
Lämpötila 20°C
Kosteus 30%
Ilmanpaine 1026 hPa
Näkyvyys: 16.1 km
selkeää

METAR: KLFT 191753Z 06008G14KT 10SM CLR 20/02 A3031 RMK AO2 SLP263 T02000017 10200 20106 58007

Aika: 14:00 (19:00 UTC)

Sääennuste

Tämä raportti tehtiin 1 tunti ja 40 minuuttia sitten, kello 17.20 UTC
Ennuste voimassa 19. päivästä klo 18 UTC - 20. päivään klo 18 UTC
Tuuli 8 kn koillisesta
Näkyvyys: 10 km
Hajanaisia pilviä 20000 ft:n korkeudessa
From 20. päivästä klo 0000 UTC
Tuuli 3 kn eri suunnista
Näkyvyys: 10 km
Hajanaisia pilviä 20000 ft:n korkeudessa

TAF: KLFT 191720Z 1918/2018 05008KT P6SM SCT200 FM200000 VRB03KT P6SM SCT200

Säähavainnot ja -ennusteet yli 4000 lentoasemalta (METAR- ja TAF-raportit).

Käytössä olevat sääasemat on merkitty karttaan keltaisilla ja punaisilla pisteillä.

Aseta hiiri pisteen päälle nähdäksesi sääaseman nimen.

Klikkaa sitten nähdäksesi säähavainnot ja -ennusteet.

Kartan vaihtaminen: klikkaa mustalla rastilla varustettuja vihreitä pisteitä, niin voit zoomata sisään; viivalla varustettua vihreää pistettä, niin voit zoomata ulos tai vihreitä nuolia, niin pääset viereisille kartoille.


METAR-TAF: